createdAt,value
2022-12-26T00:04:51.680Z,36.15
2022-12-26T00:09:40.657Z,37.63
2022-12-26T00:14:33.349Z,33.75
2022-12-26T00:19:26.733Z,33.38
2022-12-26T00:24:18.814Z,32.35
2022-12-26T00:29:12.804Z,36.80
2022-12-26T00:34:06.371Z,36.95
2022-12-26T00:39:01.251Z,36.47
2022-12-26T00:43:54.416Z,37.03
2022-12-26T00:48:49.709Z,36.65
2022-12-26T00:53:43.730Z,35.45
2022-12-26T00:58:37.635Z,36.65
2022-12-26T01:03:31.633Z,37.60
2022-12-26T01:08:25.785Z,37.28
2022-12-26T01:13:19.281Z,33.97
2022-12-26T01:18:13.105Z,32.67
2022-12-26T01:23:07.391Z,31.98
2022-12-26T01:28:01.715Z,30.23
2022-12-26T01:32:55.430Z,30.90
2022-12-26T01:37:49.067Z,29.33
2022-12-26T01:42:42.771Z,28.83
2022-12-26T01:47:41.452Z,27.45
2022-12-26T01:52:54.677Z,27.20
2022-12-26T01:57:54.173Z,28.15
2022-12-26T02:03:05.966Z,28.40
2022-12-26T02:07:59.716Z,27.85
2022-12-26T02:12:54.788Z,29.52
2022-12-26T02:17:48.515Z,30.02
2022-12-26T02:23:16.809Z,29.70
2022-12-26T02:28:48.042Z,31.45
2022-12-26T02:34:13.176Z,31.55
2022-12-26T02:39:44.330Z,32.70
2022-12-26T02:45:04.058Z,33.38
2022-12-26T02:50:43.409Z,31.52
2022-12-26T02:56:34.050Z,32.65
2022-12-26T03:02:14.296Z,28.67
2022-12-26T03:07:45.933Z,27.60
2022-12-26T03:13:04.494Z,27.83
2022-12-26T03:18:03.562Z,27.65
2022-12-26T03:23:18.653Z,23.33
2022-12-26T03:28:51.619Z,26.55
2022-12-26T03:34:05.441Z,21.38
2022-12-26T03:39:12.175Z,18.40
2022-12-26T03:44:29.582Z,16.48
2022-12-26T03:49:48.279Z,17.55
2022-12-26T03:55:38.487Z,14.55
2022-12-26T04:00:50.096Z,13.60
2022-12-26T04:06:03.815Z,14.80
2022-12-26T04:11:16.895Z,13.70
2022-12-26T04:16:37.151Z,11.60
2022-12-26T04:22:08.436Z,11.77
2022-12-26T04:27:21.417Z,11.98
2022-12-26T04:32:34.075Z,10.90
2022-12-26T04:37:48.162Z,10.98
2022-12-26T04:43:47.106Z,12.05
2022-12-26T04:48:35.457Z,11.68
2022-12-26T04:53:28.978Z,11.75
2022-12-26T04:58:24.781Z,12.60
2022-12-26T05:03:37.486Z,13.07
2022-12-26T05:08:55.744Z,11.50
2022-12-26T05:13:50.520Z,11.63
2022-12-26T05:19:02.945Z,10.80
2022-12-26T05:24:15.444Z,10.57
2022-12-26T05:29:09.704Z,11.00
2022-12-26T05:34:06.610Z,13.45
2022-12-26T05:38:59.802Z,12.48
2022-12-26T05:43:53.334Z,12.98
2022-12-26T05:48:47.821Z,13.13
2022-12-26T05:53:41.073Z,13.57
2022-12-26T05:58:34.181Z,12.93
2022-12-26T06:03:30.214Z,12.60
2022-12-26T06:08:23.692Z,12.60
2022-12-26T06:13:17.923Z,13.18
2022-12-26T06:18:11.676Z,12.23
2022-12-26T06:23:05.558Z,13.88
2022-12-26T06:28:00.045Z,13.32
2022-12-26T06:32:53.721Z,14.63
2022-12-26T06:37:47.308Z,15.38
2022-12-26T06:42:41.231Z,17.65
2022-12-26T06:47:34.501Z,17.95
2022-12-26T06:52:28.712Z,16.50
2022-12-26T06:57:22.136Z,17.98
2022-12-26T07:02:15.807Z,19.38
2022-12-26T07:07:10.382Z,22.90
2022-12-26T07:12:04.193Z,19.85
2022-12-26T07:16:58.564Z,19.92
2022-12-26T07:21:52.695Z,19.60
2022-12-26T07:26:46.569Z,19.70
2022-12-26T07:31:41.352Z,19.10
2022-12-26T07:36:35.614Z,19.38
2022-12-26T07:41:48.863Z,18.40
2022-12-26T07:46:43.243Z,19.25
2022-12-26T07:51:37.363Z,18.27
2022-12-26T07:56:33.316Z,18.00
2022-12-26T08:01:26.549Z,17.98
2022-12-26T08:06:19.992Z,16.00
2022-12-26T08:11:38.185Z,16.45
2022-12-26T08:16:32.307Z,14.52
2022-12-26T08:21:25.555Z,17.05
2022-12-26T08:26:21.489Z,16.75
2022-12-26T08:31:16.011Z,16.30
2022-12-26T08:36:12.931Z,14.45
2022-12-26T08:41:07.018Z,13.30
2022-12-26T08:46:06.260Z,13.10
2022-12-26T08:51:04.985Z,13.88
2022-12-26T08:55:57.924Z,15.37
2022-12-26T09:00:55.221Z,16.02
2022-12-26T09:05:49.616Z,15.73
2022-12-26T09:10:44.902Z,15.23
2022-12-26T09:15:38.127Z,15.80
2022-12-26T09:20:33.549Z,15.45
2022-12-26T09:25:27.473Z,16.08
2022-12-26T09:30:21.873Z,15.32
2022-12-26T09:35:15.701Z,17.13
2022-12-26T09:40:23.585Z,18.60
2022-12-26T09:45:20.171Z,19.05
2022-12-26T09:50:27.004Z,21.02
2022-12-26T09:55:44.764Z,27.35
2022-12-26T10:00:46.940Z,24.67
2022-12-26T10:05:56.908Z,25.38
2022-12-26T10:10:58.117Z,24.13
2022-12-26T10:16:00.345Z,26.00
2022-12-26T10:21:02.829Z,27.83
2022-12-26T10:26:00.893Z,28.88
2022-12-26T10:35:48.737Z,26.77
2022-12-26T10:40:45.135Z,27.75
2022-12-26T10:46:18.223Z,26.92
2022-12-26T10:51:13.619Z,28.80
2022-12-26T10:56:10.877Z,29.15
2022-12-26T11:01:29.943Z,28.02
2022-12-26T11:06:27.346Z,28.33
2022-12-26T11:11:23.472Z,29.33
2022-12-26T11:16:31.509Z,27.75
2022-12-26T11:21:28.104Z,28.17
2022-12-26T11:26:26.883Z,60.38
2022-12-26T11:31:27.543Z,31.08
2022-12-26T11:36:23.679Z,31.27
2022-12-26T11:41:34.089Z,30.75
2022-12-26T11:47:12.117Z,30.55
2022-12-26T11:52:42.549Z,29.13
2022-12-26T11:57:36.631Z,30.63
2022-12-26T12:02:33.886Z,33.08
2022-12-26T12:07:38.858Z,31.07
2022-12-26T12:12:47.154Z,30.98
2022-12-26T12:18:03.369Z,30.00
2022-12-26T12:23:26.168Z,32.05
2022-12-26T12:28:37.624Z,30.67
2022-12-26T12:33:49.515Z,33.10
2022-12-26T12:39:00.163Z,32.42
2022-12-26T12:44:33.771Z,32.58
2022-12-26T12:50:18.191Z,30.98
2022-12-26T12:55:38.462Z,34.65
2022-12-26T13:00:48.147Z,30.90
2022-12-26T13:05:49.704Z,32.92
2022-12-26T13:10:56.716Z,34.22
2022-12-26T13:15:53.342Z,33.58
2022-12-26T13:21:12.390Z,31.77
2022-12-26T13:26:21.424Z,33.60
2022-12-26T13:31:15.440Z,32.35
2022-12-26T13:36:09.898Z,37.05
2022-12-26T13:41:23.613Z,38.25
2022-12-26T13:46:52.411Z,40.88
2022-12-26T13:51:51.000Z,40.13
2022-12-26T13:56:46.091Z,35.30
2022-12-26T14:02:07.128Z,38.15
2022-12-26T14:07:23.645Z,35.88
2022-12-26T14:12:41.002Z,37.38
2022-12-26T14:18:04.723Z,35.83
2022-12-26T14:23:03.065Z,33.75
2022-12-26T14:28:10.780Z,32.90
2022-12-26T14:33:15.854Z,37.50
2022-12-26T14:38:29.952Z,37.20
2022-12-26T14:43:41.429Z,43.42
2022-12-26T14:48:34.495Z,45.83
2022-12-26T14:53:29.194Z,39.72
2022-12-26T14:58:31.760Z,40.67
2022-12-26T15:03:38.324Z,42.42
2022-12-26T15:09:09.805Z,42.97
2022-12-26T15:14:11.380Z,41.05
2022-12-26T15:19:42.477Z,42.97
2022-12-26T15:25:19.599Z,42.47
2022-12-26T15:30:22.397Z,53.15
2022-12-26T15:35:33.362Z,48.50
2022-12-26T15:40:31.186Z,43.88
2022-12-26T15:45:34.593Z,43.05
2022-12-26T15:50:38.033Z,44.25
2022-12-26T15:56:04.526Z,42.75
2022-12-26T16:01:00.203Z,46.13
2022-12-26T16:05:56.620Z,43.15
2022-12-26T16:10:55.689Z,41.03
2022-12-26T16:15:58.105Z,49.15
2022-12-26T16:21:10.972Z,47.17
2022-12-26T16:26:05.150Z,46.45
2022-12-26T16:30:59.840Z,47.47
2022-12-26T16:36:00.711Z,42.85
2022-12-26T16:40:57.089Z,44.45
2022-12-26T16:45:53.956Z,45.75
2022-12-26T16:50:56.748Z,43.60
2022-12-26T16:56:19.025Z,45.95
2022-12-26T17:01:15.013Z,46.17
2022-12-26T17:06:13.970Z,46.92
2022-12-26T17:11:07.869Z,48.63
2022-12-26T17:16:02.683Z,46.42
2022-12-26T17:20:56.811Z,50.25
2022-12-26T17:25:50.974Z,47.75
2022-12-26T17:30:45.932Z,46.03
2022-12-26T17:36:32.998Z,45.95
2022-12-26T17:41:01.734Z,50.03
2022-12-26T17:45:54.025Z,48.95
2022-12-26T17:50:48.965Z,50.50
2022-12-26T17:55:43.028Z,52.58
2022-12-26T18:00:37.105Z,52.58
2022-12-26T18:05:31.496Z,53.17
2022-12-26T18:10:30.972Z,52.55
2022-12-26T18:15:26.450Z,52.95
2022-12-26T18:20:26.513Z,53.53
2022-12-26T18:25:23.760Z,52.08
2022-12-26T18:30:25.321Z,52.75
2022-12-26T18:35:19.785Z,52.38
2022-12-26T18:40:35.696Z,54.20
2022-12-26T18:45:29.717Z,54.17
2022-12-26T18:50:24.299Z,58.67
2022-12-26T18:55:17.991Z,59.83
2022-12-26T19:00:14.597Z,51.83
2022-12-26T19:05:14.827Z,57.33
2022-12-26T19:15:03.100Z,55.08
2022-12-26T19:19:57.420Z,52.03
2022-12-26T19:24:50.446Z,46.70
2022-12-26T19:29:44.686Z,50.65
2022-12-26T19:34:44.404Z,46.08
2022-12-26T19:39:37.910Z,63.13
2022-12-26T19:44:32.241Z,53.60
2022-12-26T19:49:31.861Z,48.88
2022-12-26T19:54:26.398Z,51.58
2022-12-26T19:59:20.719Z,51.20
2022-12-26T20:04:14.320Z,54.28
2022-12-26T20:09:14.250Z,49.67
2022-12-26T20:14:10.413Z,48.45
2022-12-26T20:19:03.948Z,48.45
2022-12-26T20:24:01.580Z,51.05
2022-12-26T20:29:01.614Z,51.42
2022-12-26T20:33:54.505Z,50.03
2022-12-26T20:38:47.890Z,48.83
2022-12-26T20:43:41.269Z,52.25
2022-12-26T20:48:41.736Z,53.17
2022-12-26T20:53:36.715Z,52.55
2022-12-26T20:58:34.028Z,57.42
2022-12-26T21:03:32.597Z,56.65
2022-12-26T21:08:25.981Z,56.13
2022-12-26T21:13:20.014Z,59.03
2022-12-26T21:18:14.280Z,57.15
2022-12-26T21:23:07.363Z,54.25
2022-12-26T21:28:00.883Z,51.83
2022-12-26T21:32:54.706Z,52.67
2022-12-26T21:37:54.633Z,55.83
2022-12-26T21:42:48.366Z,56.50
2022-12-26T21:47:42.120Z,54.47
2022-12-26T21:52:36.372Z,56.40
2022-12-26T21:57:32.071Z,52.45
2022-12-26T22:02:51.579Z,52.20
2022-12-26T22:07:45.995Z,52.35
2022-12-26T22:12:57.979Z,51.78
2022-12-26T22:17:52.099Z,49.22
2022-12-26T22:22:46.518Z,47.70
2022-12-26T22:27:40.920Z,46.30
2022-12-26T22:32:34.827Z,47.00
2022-12-26T22:37:28.453Z,47.13
2022-12-26T22:42:21.992Z,47.47
2022-12-26T22:47:15.776Z,46.80
2022-12-26T22:52:15.499Z,46.30
2022-12-26T22:57:09.753Z,48.72
2022-12-26T23:02:02.824Z,47.17
2022-12-26T23:06:58.064Z,45.53
2022-12-26T23:12:10.960Z,45.55
2022-12-26T23:17:35.128Z,44.15
2022-12-26T23:22:29.520Z,46.85
2022-12-26T23:27:41.502Z,46.58
2022-12-26T23:32:36.458Z,42.72
2022-12-26T23:37:30.743Z,48.15
2022-12-26T23:42:23.901Z,46.15
2022-12-26T23:47:18.701Z,49.38
2022-12-26T23:52:12.435Z,46.03
2022-12-26T23:57:05.629Z,44.17
